createdAt,value
2022-10-22T00:01:24.918Z,101703.02
2022-10-22T00:03:53.428Z,101691.62
2022-10-22T00:06:22.126Z,101685.84
2022-10-22T00:08:50.721Z,101678.05
2022-10-22T00:11:20.424Z,101675.70
2022-10-22T00:13:49.387Z,101673.23
2022-10-22T00:16:17.984Z,101672.80
2022-10-22T00:18:46.381Z,101669.45
2022-10-22T00:21:14.912Z,101667.73
2022-10-22T00:23:44.040Z,101664.61
2022-10-22T00:26:12.909Z,101656.14
2022-10-22T00:28:41.432Z,101647.01
2022-10-22T00:31:14.118Z,101644.07
2022-10-22T00:33:42.956Z,101642.69
2022-10-22T00:36:20.478Z,101638.25
2022-10-22T00:38:49.071Z,101630.04
2022-10-22T00:41:17.755Z,101627.41
2022-10-22T00:44:04.811Z,101621.92
2022-10-22T00:46:33.355Z,101606.39
2022-10-22T00:49:03.626Z,101601.40
2022-10-22T00:51:35.062Z,101612.67
2022-10-22T00:54:07.973Z,101613.46
2022-10-22T00:56:36.556Z,101616.77
2022-10-22T00:59:05.101Z,101613.34
2022-10-22T01:01:33.688Z,101614.93
2022-10-22T01:04:02.203Z,101609.17
2022-10-22T01:06:33.409Z,101605.63
2022-10-22T01:09:11.723Z,101605.20
2022-10-22T01:12:26.647Z,101603.01
2022-10-22T01:15:16.016Z,101594.21
2022-10-22T01:18:23.675Z,101583.73
2022-10-22T01:21:30.424Z,101576.03
2022-10-22T01:25:00.882Z,101575.77
2022-10-22T01:27:41.391Z,101572.90
2022-10-22T01:30:13.567Z,101568.75
2022-10-22T01:32:53.021Z,101567.55
2022-10-22T01:35:30.939Z,101556.67
2022-10-22T01:38:05.642Z,101551.63
2022-10-22T01:40:35.533Z,101547.46
2022-10-22T01:43:09.633Z,101545.88
2022-10-22T01:45:51.156Z,101544.56
2022-10-22T01:48:29.438Z,101545.29
2022-10-22T01:51:27.296Z,101538.64
2022-10-22T01:54:32.511Z,101537.37
2022-10-22T01:57:23.323Z,101542.73
2022-10-22T02:00:06.248Z,101534.24
2022-10-22T02:03:10.063Z,101532.80
2022-10-22T02:05:50.147Z,101538.17
2022-10-22T02:08:24.580Z,101534.75
2022-10-22T02:10:53.839Z,101531.48
2022-10-22T02:13:27.609Z,101529.64
2022-10-22T02:15:57.228Z,101534.09
2022-10-22T02:18:29.112Z,101541.73
2022-10-22T02:20:58.803Z,101543.43
2022-10-22T02:23:29.797Z,101546.50
2022-10-22T02:26:17.105Z,101561.10
2022-10-22T02:29:14.679Z,101568.13
2022-10-22T02:31:45.975Z,101564.85
2022-10-22T02:34:23.488Z,101560.67
2022-10-22T02:36:52.593Z,101550.39
2022-10-22T02:39:21.471Z,101543.98
2022-10-22T02:41:50.131Z,101542.71
2022-10-22T02:44:22.397Z,101539.78
2022-10-22T02:46:51.633Z,101537.34
2022-10-22T02:49:20.476Z,101533.71
2022-10-22T02:51:49.065Z,101532.42
2022-10-22T02:54:17.592Z,101527.02
2022-10-22T02:56:45.999Z,101522.55
2022-10-22T02:59:14.571Z,101521.88
2022-10-22T03:01:43.258Z,101521.08
2022-10-22T03:04:11.904Z,101517.38
2022-10-22T03:06:44.064Z,101515.17
2022-10-22T03:09:12.754Z,101516.23
2022-10-22T03:11:41.087Z,101516.54
2022-10-22T03:14:10.062Z,101516.81
2022-10-22T03:16:39.551Z,101512.27
2022-10-22T03:19:08.281Z,101511.95
2022-10-22T03:21:50.245Z,101505.45
2022-10-22T03:24:25.078Z,101505.77
2022-10-22T03:26:53.511Z,101502.45
2022-10-22T03:29:24.452Z,101501.92
2022-10-22T03:31:54.212Z,101502.89
2022-10-22T03:34:22.778Z,101505.33
2022-10-22T03:36:52.593Z,101500.73
2022-10-22T03:39:21.984Z,101493.09
2022-10-22T03:41:53.163Z,101488.17
2022-10-22T03:44:22.766Z,101487.19
2022-10-22T03:46:51.290Z,101481.06
2022-10-22T03:49:19.792Z,101477.94
2022-10-22T03:51:48.336Z,101481.41
2022-10-22T03:54:17.179Z,101488.16
2022-10-22T03:56:45.769Z,101501.28
2022-10-22T03:59:15.229Z,101503.41
2022-10-22T04:01:43.784Z,101494.57
2022-10-22T04:04:12.445Z,101492.25
2022-10-22T04:06:40.943Z,101486.66
2022-10-22T04:09:09.412Z,101483.86
2022-10-22T04:11:37.877Z,101487.70
2022-10-22T04:14:06.454Z,101486.36
2022-10-22T04:16:34.944Z,101484.02
2022-10-22T04:19:03.838Z,101487.77
2022-10-22T04:21:32.842Z,101483.62
2022-10-22T04:24:01.642Z,101483.57
2022-10-22T04:26:30.387Z,101482.67
2022-10-22T04:28:58.967Z,101485.76
2022-10-22T04:31:28.874Z,101481.23
2022-10-22T04:33:59.403Z,101469.90
2022-10-22T04:36:29.385Z,101467.16
2022-10-22T04:39:01.465Z,101464.65
2022-10-22T04:41:33.689Z,101466.38
2022-10-22T04:44:02.666Z,101472.80
2022-10-22T04:46:33.783Z,101478.81
2022-10-22T04:49:04.204Z,101481.46
2022-10-22T04:51:33.212Z,101474.73
2022-10-22T04:54:02.141Z,101475.65
2022-10-22T04:56:32.693Z,101473.91
2022-10-22T04:59:05.589Z,101477.79
2022-10-22T05:01:41.734Z,101471.59
2022-10-22T05:04:16.485Z,101474.42
2022-10-22T05:06:45.687Z,101468.84
2022-10-22T05:09:20.542Z,101467.95
2022-10-22T05:11:51.929Z,101467.86
2022-10-22T05:14:24.519Z,101462.98
2022-10-22T05:16:54.043Z,101462.68
2022-10-22T05:19:33.660Z,101455.77
2022-10-22T05:25:31.256Z,101447.95
2022-10-22T05:28:00.383Z,101448.11
2022-10-22T05:30:29.130Z,101445.45
2022-10-22T05:32:57.847Z,101446.93
2022-10-22T05:35:26.701Z,101446.48
2022-10-22T05:40:31.203Z,101451.92
2022-10-22T05:43:00.665Z,101448.81
2022-10-22T05:45:29.432Z,101446.98
2022-10-22T05:47:58.134Z,101452.39
2022-10-22T05:50:26.728Z,101452.55
2022-10-22T05:52:55.402Z,101452.55
2022-10-22T05:55:24.057Z,101449.38
2022-10-22T05:57:52.564Z,101453.43
2022-10-22T06:00:21.572Z,101456.43
2022-10-22T06:02:51.472Z,101462.98
2022-10-22T06:05:19.920Z,101462.16
2022-10-22T06:07:48.536Z,101464.95
2022-10-22T06:10:20.486Z,101465.27
2022-10-22T06:12:49.810Z,101459.39
2022-10-22T06:15:20.587Z,101461.45
2022-10-22T06:17:49.094Z,101459.95
2022-10-22T06:20:17.718Z,101449.09
2022-10-22T06:22:46.249Z,101453.66
2022-10-22T06:25:15.256Z,101449.50
2022-10-22T06:27:43.888Z,101452.41
2022-10-22T06:30:13.115Z,101451.91
2022-10-22T06:32:42.103Z,101450.65
2022-10-22T06:35:11.165Z,101445.84
2022-10-22T06:37:39.787Z,101443.48
2022-10-22T06:40:09.063Z,101444.33
2022-10-22T06:42:37.641Z,101444.61
2022-10-22T06:45:07.934Z,101441.02
2022-10-22T06:47:36.668Z,101435.13
2022-10-22T06:50:05.698Z,101435.52
2022-10-22T06:52:34.254Z,101441.20
2022-10-22T06:55:02.882Z,101442.04
2022-10-22T06:57:31.957Z,101440.09
2022-10-22T07:00:00.650Z,101442.20
2022-10-22T07:02:29.300Z,101438.48
2022-10-22T07:04:57.996Z,101431.29
2022-10-22T07:07:26.835Z,101419.79
2022-10-22T07:09:57.830Z,101419.16
2022-10-22T07:12:26.680Z,101415.80
2022-10-22T07:14:55.899Z,101414.58
2022-10-22T07:17:24.682Z,101414.95
2022-10-22T07:19:53.377Z,101418.15
2022-10-22T07:22:22.254Z,101420.02
2022-10-22T07:24:50.803Z,101420.73
2022-10-22T07:27:19.400Z,101419.75
2022-10-22T07:29:47.966Z,101421.93
2022-10-22T07:32:18.765Z,101423.98
2022-10-22T07:34:49.422Z,101422.75
2022-10-22T07:37:22.351Z,101420.73
2022-10-22T07:39:51.088Z,101416.97
2022-10-22T07:42:20.969Z,101419.73
2022-10-22T07:44:49.597Z,101423.29
2022-10-22T07:47:18.030Z,101428.04
2022-10-22T07:49:46.437Z,101426.02
2022-10-22T07:52:15.463Z,101426.09
2022-10-22T07:54:43.909Z,101428.73
2022-10-22T08:01:32.850Z,101420.90
2022-10-22T08:04:00.292Z,101416.54
2022-10-22T08:06:28.048Z,101417.17
2022-10-22T08:08:55.325Z,101414.19
2022-10-22T08:11:22.928Z,101414.73
2022-10-22T08:13:49.944Z,101408.95
2022-10-22T08:16:17.358Z,101411.98
2022-10-22T08:18:44.842Z,101412.32
2022-10-22T08:21:12.912Z,101415.81
2022-10-22T08:23:40.253Z,101412.46
2022-10-22T08:26:07.948Z,101412.91
2022-10-22T08:28:36.671Z,101412.21
2022-10-22T08:31:07.130Z,101414.90
2022-10-22T08:33:34.498Z,101414.02
2022-10-22T08:36:01.884Z,101406.89
2022-10-22T08:38:30.793Z,101415.32
2022-10-22T08:41:09.416Z,101418.73
2022-10-22T08:44:07.583Z,101422.63
2022-10-22T08:46:53.844Z,101423.02
2022-10-22T08:49:30.110Z,101429.95
2022-10-22T08:51:58.223Z,101432.28
2022-10-22T08:54:37.473Z,101431.85
2022-10-22T08:57:52.431Z,101432.10
2022-10-22T09:00:43.738Z,101431.30
2022-10-22T09:03:28.990Z,101426.52
2022-10-22T09:06:10.860Z,101424.96
2022-10-22T09:08:39.423Z,101427.98
2022-10-22T09:11:13.194Z,101433.57
2022-10-22T09:13:44.010Z,101435.70
2022-10-22T09:16:36.547Z,101432.48
2022-10-22T09:19:06.710Z,101422.55
2022-10-22T09:21:42.938Z,101420.65
2022-10-22T09:24:19.637Z,101423.67
2022-10-22T09:26:46.712Z,101422.62
2022-10-22T09:29:22.025Z,101424.38
2022-10-22T09:31:49.933Z,101425.27
2022-10-22T09:34:21.751Z,101422.23
2022-10-22T09:37:03.589Z,101418.56
2022-10-22T09:39:38.833Z,101417.79
2022-10-22T09:42:10.248Z,101409.91
2022-10-22T09:44:38.305Z,101411.98
2022-10-22T09:47:07.502Z,101404.59
2022-10-22T09:49:35.902Z,101397.38
2022-10-22T09:52:03.074Z,101394.72
2022-10-22T09:54:33.464Z,101390.05
2022-10-22T09:57:06.524Z,101385.77
2022-10-22T09:59:38.112Z,101382.92
2022-10-22T10:02:37.159Z,101379.75
2022-10-22T10:05:06.949Z,101377.79
2022-10-22T10:07:35.791Z,101372.31
2022-10-22T10:10:21.318Z,101370.48
2022-10-22T10:12:59.649Z,101374.96
2022-10-22T10:15:36.181Z,101374.45
2022-10-22T10:18:19.419Z,101373.45
2022-10-22T10:21:12.064Z,101366.38
2022-10-22T10:24:03.614Z,101358.29
2022-10-22T10:26:49.432Z,101348.45
2022-10-22T10:30:03.568Z,101340.11
2022-10-22T10:33:04.805Z,101328.62
2022-10-22T10:36:18.070Z,101324.68
2022-10-22T10:39:15.729Z,101324.41
2022-10-22T10:42:13.610Z,101328.30
2022-10-22T10:44:52.602Z,101331.52
2022-10-22T10:47:43.884Z,101333.86
2022-10-22T10:50:28.699Z,101335.34
2022-10-22T10:53:29.276Z,101332.63
2022-10-22T10:56:21.996Z,101323.08
2022-10-22T10:59:12.377Z,101321.44
2022-10-22T11:02:17.545Z,101320.82
2022-10-22T11:04:57.906Z,101311.38
2022-10-22T11:07:35.375Z,101309.86
2022-10-22T11:10:15.634Z,101313.41
2022-10-22T11:12:48.486Z,101313.38
2022-10-22T11:15:34.940Z,101317.44
2022-10-22T11:18:22.368Z,101307.83
2022-10-22T11:21:12.391Z,101303.88
2022-10-22T11:23:48.927Z,101302.60
2022-10-22T11:27:02.890Z,101302.42
2022-10-22T11:29:38.755Z,101299.81
2022-10-22T11:32:13.088Z,101296.09
2022-10-22T11:34:50.518Z,101298.27
2022-10-22T11:37:18.266Z,101305.08
2022-10-22T11:39:59.335Z,101312.34
2022-10-22T11:42:46.320Z,101305.69
2022-10-22T11:45:13.473Z,101298.41
2022-10-22T11:48:18.441Z,101296.65
2022-10-22T11:50:52.485Z,101290.36
2022-10-22T11:53:25.698Z,101281.89
2022-10-22T11:55:59.359Z,101285.48
2022-10-22T11:58:38.851Z,101291.94
2022-10-22T12:01:09.164Z,101289.83
2022-10-22T12:03:43.502Z,101281.95
2022-10-22T12:06:20.585Z,101283.84
2022-10-22T12:08:54.078Z,101285.31
2022-10-22T12:11:23.700Z,101278.20
2022-10-22T12:14:15.522Z,101277.63
2022-10-22T12:17:09.945Z,101278.86
2022-10-22T12:19:40.776Z,101275.73
2022-10-22T12:22:11.026Z,101273.48
2022-10-22T12:24:42.216Z,101268.87
2022-10-22T12:27:26.135Z,101265.77
2022-10-22T12:29:56.124Z,101263.20
2022-10-22T12:32:28.933Z,101259.42
2022-10-22T12:34:56.204Z,101257.92
2022-10-22T12:37:23.459Z,101255.42
2022-10-22T12:39:51.234Z,101251.98
2022-10-22T12:42:18.428Z,101250.25
2022-10-22T12:44:46.164Z,101241.00
2022-10-22T12:47:17.985Z,101234.43
2022-10-22T12:49:50.856Z,101230.80
2022-10-22T12:52:23.328Z,101228.20
2022-10-22T12:54:52.080Z,101231.19
2022-10-22T12:57:20.179Z,101231.52
2022-10-22T12:59:50.404Z,101229.38
2022-10-22T13:02:26.190Z,101226.17
2022-10-22T13:05:26.965Z,101228.80
2022-10-22T13:08:10.212Z,101223.55
2022-10-22T13:10:40.531Z,101216.42
2022-10-22T13:13:31.427Z,101218.54
2022-10-22T13:16:24.345Z,101222.80
2022-10-22T13:18:53.007Z,101222.73
2022-10-22T13:21:40.326Z,101221.92
2022-10-22T13:24:23.635Z,101212.80
2022-10-22T13:26:53.343Z,101205.65
2022-10-22T13:29:22.648Z,101203.39
2022-10-22T13:31:52.444Z,101203.16
2022-10-22T13:34:23.323Z,101197.61
2022-10-22T13:36:50.948Z,101200.56
2022-10-22T13:39:24.022Z,101202.08
2022-10-22T13:41:59.271Z,101202.53
2022-10-22T13:44:27.723Z,101198.93
2022-10-22T13:46:55.756Z,101201.55
2022-10-22T13:49:23.318Z,101204.22
2022-10-22T13:51:51.275Z,101204.16
2022-10-22T13:54:22.602Z,101204.16
2022-10-22T13:56:49.774Z,101206.02
2022-10-22T13:59:19.770Z,101209.45
2022-10-22T14:01:50.632Z,101207.44
2022-10-22T14:04:18.011Z,101205.66
2022-10-22T14:06:45.362Z,101200.54
2022-10-22T14:09:15.252Z,101191.36
2022-10-22T14:11:42.801Z,101196.64
2022-10-22T14:14:13.703Z,101194.92
2022-10-22T14:16:40.872Z,101194.16
2022-10-22T14:19:14.890Z,101187.98
2022-10-22T14:21:42.109Z,101182.54
2022-10-22T14:24:13.083Z,101179.39
2022-10-22T14:26:41.064Z,101180.54
2022-10-22T14:29:09.691Z,101173.17
2022-10-22T14:31:44.234Z,101171.99
2022-10-22T14:34:15.361Z,101170.82
2022-10-22T14:36:45.630Z,101174.38
2022-10-22T14:39:13.618Z,101178.14
2022-10-22T14:41:41.250Z,101178.05
2022-10-22T14:44:12.154Z,101182.25
2022-10-22T14:46:42.232Z,101181.08
2022-10-22T14:49:09.899Z,101181.58
2022-10-22T14:51:37.238Z,101181.83
2022-10-22T14:54:04.895Z,101175.65
2022-10-22T14:56:32.299Z,101173.42
2022-10-22T14:58:59.574Z,101168.41
2022-10-22T15:01:27.018Z,101166.25
2022-10-22T15:03:54.235Z,101162.11
2022-10-22T15:06:21.978Z,101162.06
2022-10-22T15:08:49.326Z,101158.95
2022-10-22T15:11:16.557Z,101154.31
2022-10-22T15:13:43.916Z,101156.77
2022-10-22T15:16:13.392Z,101157.98
2022-10-22T15:18:40.707Z,101152.28
2022-10-22T15:21:18.283Z,101153.15
2022-10-22T15:23:45.816Z,101151.48
2022-10-22T15:26:14.201Z,101157.21
2022-10-22T15:28:42.512Z,101168.06
2022-10-22T15:31:13.683Z,101169.35
2022-10-22T15:33:42.697Z,101164.89
2022-10-22T15:36:16.268Z,101163.55
2022-10-22T15:38:43.848Z,101163.23
2022-10-22T15:41:13.043Z,101167.39
2022-10-22T15:43:40.263Z,101172.73
2022-10-22T15:46:19.173Z,101173.70
2022-10-22T15:48:46.623Z,101175.19
2022-10-22T15:51:17.258Z,101174.18
2022-10-22T15:53:50.959Z,101177.30
2022-10-22T15:56:18.394Z,101178.48
2022-10-22T15:58:47.212Z,101173.98
2022-10-22T16:01:14.742Z,101170.75
2022-10-22T16:03:42.198Z,101171.95
2022-10-22T16:06:09.688Z,101166.23
2022-10-22T16:08:37.628Z,101170.80
2022-10-22T16:11:05.207Z,101178.95
2022-10-22T16:13:35.416Z,101179.70
2022-10-22T16:16:07.585Z,101183.39
2022-10-22T16:18:34.829Z,101190.31
2022-10-22T16:21:02.128Z,101190.64
2022-10-22T16:23:29.617Z,101192.24
2022-10-22T16:26:01.473Z,101182.76
2022-10-22T16:28:28.892Z,101183.96
2022-10-22T16:30:56.874Z,101185.80
2022-10-22T16:33:24.303Z,101185.48
2022-10-22T16:35:51.779Z,101192.11
2022-10-22T16:38:19.012Z,101191.84
2022-10-22T16:40:46.251Z,101191.06
2022-10-22T16:43:13.596Z,101189.35
2022-10-22T16:45:50.657Z,101186.19
2022-10-22T16:48:18.257Z,101185.03
2022-10-22T16:50:45.710Z,101181.59
2022-10-22T16:53:12.985Z,101177.73
2022-10-22T16:55:43.109Z,101182.83
2022-10-22T16:58:10.374Z,101189.15
2022-10-22T17:00:37.681Z,101191.17
2022-10-22T17:03:06.961Z,101189.98
2022-10-22T17:05:36.078Z,101186.25
2022-10-22T17:08:03.530Z,101176.81
2022-10-22T17:10:30.714Z,101174.40
2022-10-22T17:12:57.806Z,101176.36
2022-10-22T17:15:25.162Z,101175.70
2022-10-22T17:17:53.367Z,101172.27
2022-10-22T17:20:20.964Z,101170.31
2022-10-22T17:22:49.174Z,101170.55
2022-10-22T17:25:21.888Z,101170.86
2022-10-22T17:27:49.755Z,101172.23
2022-10-22T17:30:23.340Z,101174.69
2022-10-22T17:32:54.765Z,101174.02
2022-10-22T17:35:22.058Z,101173.17
2022-10-22T17:37:49.272Z,101165.88
2022-10-22T17:40:16.372Z,101163.52
2022-10-22T17:42:45.082Z,101159.83
2022-10-22T17:45:12.392Z,101157.25
2022-10-22T17:47:39.949Z,101157.79
2022-10-22T17:50:08.294Z,101156.39
2022-10-22T17:52:35.724Z,101159.38
2022-10-22T17:55:03.700Z,101157.29
2022-10-22T17:57:30.886Z,101155.66
2022-10-22T17:59:58.065Z,101156.02
2022-10-22T18:02:25.276Z,101158.63
2022-10-22T18:04:53.050Z,101161.55
2022-10-22T18:07:20.512Z,101163.24
2022-10-22T18:09:48.016Z,101157.77
2022-10-22T18:12:17.500Z,101155.23
2022-10-22T18:14:46.423Z,101154.84
2022-10-22T18:19:41.841Z,101160.36
2022-10-22T18:22:09.822Z,101154.52
2022-10-22T18:24:38.396Z,101152.92
2022-10-22T18:27:05.808Z,101150.48
2022-10-22T18:29:33.150Z,101146.66
2022-10-22T18:32:00.425Z,101137.25
2022-10-22T18:34:28.845Z,101131.81
2022-10-22T18:36:57.536Z,101125.20
2022-10-22T18:39:24.886Z,101118.52
2022-10-22T18:41:52.755Z,101117.94
2022-10-22T18:44:19.849Z,101120.82
2022-10-22T18:46:47.124Z,101123.33
2022-10-22T18:49:18.351Z,101124.31
2022-10-22T18:51:48.283Z,101127.06
2022-10-22T18:54:23.096Z,101128.94
2022-10-22T18:56:59.340Z,101123.98
2022-10-22T18:59:29.579Z,101120.46
2022-10-22T19:02:00.052Z,101116.19
2022-10-22T19:04:36.166Z,101115.60
2022-10-22T19:07:07.185Z,101121.38
2022-10-22T19:09:37.742Z,101127.67
2022-10-22T19:12:16.966Z,101125.96
2022-10-22T19:14:44.713Z,101127.80
2022-10-22T19:17:11.909Z,101129.48
2022-10-22T19:19:40.260Z,101129.78
2022-10-22T19:22:07.247Z,101132.63
2022-10-22T19:24:34.555Z,101134.63
2022-10-22T19:27:05.550Z,101130.95
2022-10-22T19:29:32.695Z,101129.03
2022-10-22T19:31:59.976Z,101128.02
2022-10-22T19:34:30.270Z,101130.61
2022-10-22T19:36:58.031Z,101142.54
2022-10-22T19:39:25.212Z,101149.20
2022-10-22T19:41:52.385Z,101143.52
2022-10-22T19:44:19.482Z,101139.86
2022-10-22T19:46:46.760Z,101133.91
2022-10-22T19:49:17.656Z,101136.21
2022-10-22T19:51:48.254Z,101132.75
2022-10-22T19:54:18.007Z,101135.42
2022-10-22T19:56:45.805Z,101130.15
2022-10-22T19:59:15.181Z,101124.55
2022-10-22T20:01:42.809Z,101120.41
2022-10-22T20:04:15.203Z,101127.44
2022-10-22T20:06:42.900Z,101132.02
2022-10-22T20:09:10.709Z,101136.06
2022-10-22T20:11:39.225Z,101144.13
2022-10-22T20:14:07.449Z,101146.59
2022-10-22T20:16:35.661Z,101153.38
2022-10-22T20:19:10.282Z,101150.55
2022-10-22T20:21:50.134Z,101149.58
2022-10-22T20:24:20.438Z,101152.44
2022-10-22T20:26:47.872Z,101145.80
2022-10-22T20:29:18.581Z,101140.03
2022-10-22T20:31:46.882Z,101136.58
2022-10-22T20:34:14.343Z,101139.36
2022-10-22T20:36:41.817Z,101138.03
2022-10-22T20:39:12.658Z,101135.95
2022-10-22T20:41:41.115Z,101132.82
2022-10-22T20:44:16.035Z,101132.36
2022-10-22T20:46:43.627Z,101138.38
2022-10-22T20:49:20.185Z,101136.53
2022-10-22T20:51:47.426Z,101137.15
2022-10-22T20:54:15.558Z,101137.60
2022-10-22T20:56:43.439Z,101135.02
2022-10-22T20:59:12.113Z,101141.86
2022-10-22T21:01:48.923Z,101143.29
2022-10-22T21:04:18.073Z,101139.50
2022-10-22T21:06:45.706Z,101138.64
2022-10-22T21:09:14.174Z,101135.75
2022-10-22T21:11:42.480Z,101124.30
2022-10-22T21:14:11.445Z,101119.97
2022-10-22T21:16:44.133Z,101114.81
2022-10-22T21:19:11.446Z,101104.91
2022-10-22T21:21:38.578Z,101107.58
2022-10-22T21:24:06.114Z,101100.60
2022-10-22T21:26:39.576Z,101103.91
2022-10-22T21:29:08.270Z,101113.39
2022-10-22T21:31:37.623Z,101112.73
2022-10-22T21:34:04.973Z,101107.14
2022-10-22T21:36:32.240Z,101098.10
2022-10-22T21:39:00.892Z,101094.95
2022-10-22T21:41:28.116Z,101091.64
2022-10-22T21:43:55.736Z,101088.27
2022-10-22T21:46:26.639Z,101101.73
2022-10-22T21:49:04.043Z,101099.22
2022-10-22T21:51:33.294Z,101098.74
2022-10-22T21:54:01.184Z,101103.19
2022-10-22T21:56:33.860Z,101108.14
2022-10-22T22:02:35.443Z,101100.76
2022-10-22T22:05:04.206Z,101106.39
2022-10-22T22:07:32.988Z,101104.17
2022-10-22T22:10:01.505Z,101109.52
2022-10-22T22:12:30.078Z,101105.06
2022-10-22T22:14:58.567Z,101097.67
2022-10-22T22:17:27.183Z,101098.20
2022-10-22T22:19:55.716Z,101092.23
2022-10-22T22:22:25.366Z,101081.79
2022-10-22T22:24:54.315Z,101081.59
2022-10-22T22:27:23.212Z,101069.61
2022-10-22T22:29:54.004Z,101064.36
2022-10-22T22:32:22.532Z,101060.27
2022-10-22T22:34:51.092Z,101057.59
2022-10-22T22:37:19.578Z,101057.42
2022-10-22T22:39:48.150Z,101062.83
2022-10-22T22:42:16.820Z,101055.94
2022-10-22T22:44:45.874Z,101057.65
2022-10-22T22:47:14.405Z,101064.67
2022-10-22T22:49:42.963Z,101067.98
2022-10-22T22:52:11.702Z,101067.95
2022-10-22T22:54:40.262Z,101063.89
2022-10-22T22:57:08.856Z,101062.49
2022-10-22T22:59:37.614Z,101059.28
2022-10-22T23:02:06.176Z,101060.19
2022-10-22T23:04:34.848Z,101053.60
2022-10-22T23:07:03.373Z,101049.88
2022-10-22T23:09:32.287Z,101049.41
2022-10-22T23:12:00.858Z,101056.85
2022-10-22T23:14:29.400Z,101059.18
2022-10-22T23:16:57.982Z,101056.16
2022-10-22T23:19:26.694Z,101059.98
2022-10-22T23:21:56.204Z,101060.58
2022-10-22T23:24:28.181Z,101060.28
2022-10-22T23:27:00.976Z,101061.41
2022-10-22T23:29:33.683Z,101057.02
2022-10-22T23:32:06.402Z,101053.59
2022-10-22T23:34:36.965Z,101053.78
2022-10-22T23:37:05.549Z,101052.50
2022-10-22T23:39:34.213Z,101051.88
2022-10-22T23:42:02.705Z,101050.03
2022-10-22T23:44:31.190Z,101052.77
2022-10-22T23:46:59.771Z,101049.67
2022-10-22T23:49:28.458Z,101045.90
2022-10-22T23:51:56.914Z,101041.98
2022-10-22T23:54:25.607Z,101042.73
2022-10-22T23:56:55.894Z,101039.90
2022-10-22T23:59:25.650Z,101039.80
